sensor_id;sensor_type;location;lat;lon;timestamp;pressure;altitude;pressure_sealevel;temperature;humidity
24558;BME280;12726;49.148;8.582;2023-10-19T00:02:23;98736.22;;;10.20;100.00
24558;BME280;12726;49.148;8.582;2023-10-19T00:05:08;98737.25;;;10.19;100.00
24558;BME280;12726;49.148;8.582;2023-10-19T00:07:54;98752.34;;;10.20;100.00
24558;BME280;12726;49.148;8.582;2023-10-19T00:10:42;98742.16;;;10.23;100.00
24558;BME280;12726;49.148;8.582;2023-10-19T00:13:29;98740.25;;;10.23;100.00
24558;BME280;12726;49.148;8.582;2023-10-19T00:16:14;98737.06;;;10.26;100.00
24558;BME280;12726;49.148;8.582;2023-10-19T00:19:00;98729.56;;;10.28;100.00
24558;BME280;12726;49.148;8.582;2023-10-19T00:21:46;98708.88;;;10.29;100.00
24558;BME280;12726;49.148;8.582;2023-10-19T00:24:35;98713.72;;;10.32;100.00
24558;BME280;12726;49.148;8.582;2023-10-19T00:27:21;98704.59;;;10.33;100.00
24558;BME280;12726;49.148;8.582;2023-10-19T00:30:07;98696.28;;;10.34;100.00
24558;BME280;12726;49.148;8.582;2023-10-19T00:32:54;98687.91;;;10.31;100.00
24558;BME280;12726;49.148;8.582;2023-10-19T00:35:40;98700.53;;;10.30;100.00
24558;BME280;12726;49.148;8.582;2023-10-19T00:38:31;98698.41;;;10.32;100.00
24558;BME280;12726;49.148;8.582;2023-10-19T00:41:26;98702.97;;;10.32;100.00
24558;BME280;12726;49.148;8.582;2023-10-19T00:44:14;98693.84;;;10.33;100.00
24558;BME280;12726;49.148;8.582;2023-10-19T00:47:01;98689.28;;;10.33;100.00
24558;BME280;12726;49.148;8.582;2023-10-19T00:49:48;98682.84;;;10.34;100.00
24558;BME280;12726;49.148;8.582;2023-10-19T00:52:33;98687.97;;;10.36;100.00
24558;BME280;12726;49.148;8.582;2023-10-19T00:55:27;98683.69;;;10.40;100.00
24558;BME280;12726;49.148;8.582;2023-10-19T00:58:13;98675.13;;;10.43;100.00
24558;BME280;12726;49.148;8.582;2023-10-19T01:01:02;98668.16;;;10.47;100.00
24558;BME280;12726;49.148;8.582;2023-10-19T01:03:51;98671.19;;;10.50;100.00
24558;BME280;12726;49.148;8.582;2023-10-19T01:06:40;98662.56;;;10.53;100.00
24558;BME280;12726;49.148;8.582;2023-10-19T01:09:28;98668.28;;;10.57;100.00
24558;BME280;12726;49.148;8.582;2023-10-19T01:12:18;98651.69;;;10.65;100.00
24558;BME280;12726;49.148;8.582;2023-10-19T01:15:14;98649.59;;;10.72;100.00
24558;BME280;12726;49.148;8.582;2023-10-19T01:18:00;98668.47;;;10.77;100.00
24558;BME280;12726;49.148;8.582;2023-10-19T01:20:46;98657.97;;;10.81;100.00
24558;BME280;12726;49.148;8.582;2023-10-19T01:23:37;98650.47;;;10.83;100.00
24558;BME280;12726;49.148;8.582;2023-10-19T01:26:23;98657.47;;;10.84;100.00
24558;BME280;12726;49.148;8.582;2023-10-19T01:29:10;98659.94;;;10.90;100.00
24558;BME280;12726;49.148;8.582;2023-10-19T01:32:00;98654.88;;;10.94;100.00
24558;BME280;12726;49.148;8.582;2023-10-19T01:34:52;98641.13;;;10.95;100.00
24558;BME280;12726;49.148;8.582;2023-10-19T01:37:37;98637.16;;;11.03;100.00
24558;BME280;12726;49.148;8.582;2023-10-19T01:40:23;98632.31;;;11.00;100.00
24558;BME280;12726;49.148;8.582;2023-10-19T01:43:09;98627.16;;;10.98;100.00
24558;BME280;12726;49.148;8.582;2023-10-19T01:45:53;98620.16;;;10.97;100.00
24558;BME280;12726;49.148;8.582;2023-10-19T01:48:39;98620.97;;;10.98;100.00
24558;BME280;12726;49.148;8.582;2023-10-19T01:51:26;98620.97;;;10.98;100.00
24558;BME280;12726;49.148;8.582;2023-10-19T01:54:12;98605.88;;;10.97;100.00
24558;BME280;12726;49.148;8.582;2023-10-19T01:57:00;98606.44;;;10.99;100.00
24558;BME280;12726;49.148;8.582;2023-10-19T01:59:45;98601.31;;;10.97;100.00
24558;BME280;12726;49.148;8.582;2023-10-19T02:02:30;98601.31;;;10.97;100.00
24558;BME280;12726;49.148;8.582;2023-10-19T02:05:17;98593.75;;;10.94;100.00
24558;BME280;12726;49.148;8.582;2023-10-19T02:08:03;98574.63;;;10.91;100.00
24558;BME280;12726;49.148;8.582;2023-10-19T02:10:48;98580.25;;;10.89;100.00
24558;BME280;12726;49.148;8.582;2023-10-19T02:13:35;98575.41;;;10.86;100.00
24558;BME280;12726;49.148;8.582;2023-10-19T02:16:20;98577.53;;;10.84;100.00
24558;BME280;12726;49.148;8.582;2023-10-19T02:19:06;98583.72;;;10.85;100.00
24558;BME280;12726;49.148;8.582;2023-10-19T02:21:53;98582.91;;;10.84;100.00
24558;BME280;12726;49.148;8.582;2023-10-19T02:24:39;98583.97;;;10.83;100.00
24558;BME280;12726;49.148;8.582;2023-10-19T02:27:23;98575.91;;;10.83;100.00
24558;BME280;12726;49.148;8.582;2023-10-19T02:30:11;98575.34;;;10.81;100.00
24558;BME280;12726;49.148;8.582;2023-10-19T02:32:56;98575.34;;;10.81;100.00
24558;BME280;12726;49.148;8.582;2023-10-19T02:35:41;98575.63;;;10.80;100.00
24558;BME280;12726;49.148;8.582;2023-10-19T02:38:25;98563.47;;;10.77;100.00
24558;BME280;12726;49.148;8.582;2023-10-19T02:41:11;98572.38;;;10.78;100.00
24558;BME280;12726;49.148;8.582;2023-10-19T02:43:55;98575.88;;;10.78;100.00
24558;BME280;12726;49.148;8.582;2023-10-19T02:46:51;98582.91;;;10.84;100.00
24558;BME280;12726;49.148;8.582;2023-10-19T02:49:41;98564.63;;;10.86;100.00
24558;BME280;12726;49.148;8.582;2023-10-19T02:52:28;98580.25;;;10.89;100.00
24558;BME280;12726;49.148;8.582;2023-10-19T02:55:13;98583.25;;;10.93;100.00
24558;BME280;12726;49.148;8.582;2023-10-19T02:58:00;98577.88;;;10.93;100.00
24558;BME280;12726;49.148;8.582;2023-10-19T03:00:45;98571.41;;;10.94;100.00
24558;BME280;12726;49.148;8.582;2023-10-19T03:03:32;98579.22;;;10.95;100.00
24558;BME280;12726;49.148;8.582;2023-10-19T03:06:19;98580.59;;;10.98;100.00
24558;BME280;12726;49.148;8.582;2023-10-19T03:09:05;98577.06;;;10.97;100.00
24558;BME280;12726;49.148;8.582;2023-10-19T03:11:57;98567.13;;;10.98;100.00
24558;BME280;12726;49.148;8.582;2023-10-19T03:14:43;98557.97;;;10.99;100.00
24558;BME280;12726;49.148;8.582;2023-10-19T03:17:30;98561.22;;;11.01;100.00
24558;BME280;12726;49.148;8.582;2023-10-19T03:20:17;98558.53;;;11.01;100.00
24558;BME280;12726;49.148;8.582;2023-10-19T03:23:08;98551.25;;;11.02;100.00
24558;BME280;12726;49.148;8.582;2023-10-19T03:25:55;98556.63;;;11.02;100.00
24558;BME280;12726;49.148;8.582;2023-10-19T03:28:54;98552.06;;;11.02;100.00
24558;BME280;12726;49.148;8.582;2023-10-19T03:31:56;98550.19;;;11.03;100.00
24558;BME280;12726;49.148;8.582;2023-10-19T03:34:42;98538.59;;;11.02;100.00
24558;BME280;12726;49.148;8.582;2023-10-19T03:37:32;98541.03;;;11.04;100.00
24558;BME280;12726;49.148;8.582;2023-10-19T03:40:19;98539.16;;;11.04;100.00
24558;BME280;12726;49.148;8.582;2023-10-19T03:43:11;98526.22;;;11.01;100.00
24558;BME280;12726;49.148;8.582;2023-10-19T03:46:02;98523.53;;;11.01;100.00
24558;BME280;12726;49.148;8.582;2023-10-19T03:48:54;98511.13;;;11.00;100.00
24558;BME280;12726;49.148;8.582;2023-10-19T03:51:42;98511.38;;;10.98;100.00
24558;BME280;12726;49.148;8.582;2023-10-19T03:54:43;98508.44;;;11.00;100.00
24558;BME280;12726;49.148;8.582;2023-10-19T03:57:28;98510.06;;;11.01;100.00
24558;BME280;12726;49.148;8.582;2023-10-19T04:00:15;98503.59;;;11.02;100.00
24558;BME280;12726;49.148;8.582;2023-10-19T04:03:00;98499.81;;;11.03;100.00
24558;BME280;12726;49.148;8.582;2023-10-19T04:05:46;98501.44;;;11.04;100.00
24558;BME280;12726;49.148;8.582;2023-10-19T04:08:33;98486.09;;;11.05;100.00
24558;BME280;12726;49.148;8.582;2023-10-19T04:11:22;98483.97;;;11.07;100.00
24558;BME280;12726;49.148;8.582;2023-10-19T04:14:16;98479.94;;;11.09;100.00
24558;BME280;12726;49.148;8.582;2023-10-19T04:17:02;98497.97;;;11.09;100.00
24558;BME280;12726;49.148;8.582;2023-10-19T04:19:50;98479.41;;;11.12;100.00
24558;BME280;12726;49.148;8.582;2023-10-19T04:22:36;98478.59;;;11.12;100.00
24558;BME280;12726;49.148;8.582;2023-10-19T04:25:22;98468.91;;;11.16;100.00
24558;BME280;12726;49.148;8.582;2023-10-19T04:28:11;98473.78;;;11.14;100.00
24558;BME280;12726;49.148;8.582;2023-10-19T04:30:57;98467.03;;;11.16;100.00
24558;BME280;12726;49.148;8.582;2023-10-19T04:33:46;98469.44;;;11.13;100.00
24558;BME280;12726;49.148;8.582;2023-10-19T04:36:32;98465.94;;;11.12;100.00
24558;BME280;12726;49.148;8.582;2023-10-19T04:39:18;98465.13;;;11.12;100.00
24558;BME280;12726;49.148;8.582;2023-10-19T04:42:03;98462.19;;;11.08;100.00
24558;BME280;12726;49.148;8.582;2023-10-19T04:44:51;98458.13;;;11.06;100.00
24558;BME280;12726;49.148;8.582;2023-10-19T04:47:37;98469.13;;;11.04;100.00
24558;BME280;12726;49.148;8.582;2023-10-19T04:50:23;98469.13;;;11.04;100.00
24558;BME280;12726;49.148;8.582;2023-10-19T04:53:08;98471.03;;;11.04;100.00
24558;BME280;12726;49.148;8.582;2023-10-19T04:55:53;98470.47;;;11.02;100.00
24558;BME280;12726;49.148;8.582;2023-10-19T04:58:39;98476.94;;;11.01;100.00
24558;BME280;12726;49.148;8.582;2023-10-19T05:01:25;98472.31;;;10.96;100.00
24558;BME280;12726;49.148;8.582;2023-10-19T05:04:12;98476.38;;;10.93;100.00
24558;BME280;12726;49.148;8.582;2023-10-19T05:06:57;98473.13;;;10.96;100.00
24558;BME280;12726;49.148;8.582;2023-10-19T05:09:43;98455.91;;;10.92;100.00
24558;BME280;12726;49.148;8.582;2023-10-19T05:12:29;98461.81;;;10.94;100.00
24558;BME280;12726;49.148;8.582;2023-10-19T05:15:14;98455.91;;;10.92;100.00
24558;BME280;12726;49.148;8.582;2023-10-19T05:18:02;98453.72;;;10.89;100.00
24558;BME280;12726;49.148;8.582;2023-10-19T05:20:48;98447.78;;;10.87;100.00
24558;BME280;12726;49.148;8.582;2023-10-19T05:23:38;98456.09;;;10.81;100.00
24558;BME280;12726;49.148;8.582;2023-10-19T05:26:24;98454.75;;;10.78;100.00
24558;BME280;12726;49.148;8.582;2023-10-19T05:29:10;98452.31;;;10.77;100.00
24558;BME280;12726;49.148;8.582;2023-10-19T05:31:56;98445.31;;;10.76;100.00
24558;BME280;12726;49.148;8.582;2023-10-19T05:34:43;98452.34;;;10.82;100.00
24558;BME280;12726;49.148;8.582;2023-10-19T05:37:28;98448.03;;;10.81;100.00
24558;BME280;12726;49.148;8.582;2023-10-19T05:40:14;98447.78;;;10.87;100.00
24558;BME280;12726;49.148;8.582;2023-10-19T05:42:59;98452.06;;;10.83;100.00
24558;BME280;12726;49.148;8.582;2023-10-19T05:45:45;98444.81;;;10.84;100.00
24558;BME280;12726;49.148;8.582;2023-10-19T05:48:33;98443.19;;;10.83;100.00
24558;BME280;12726;49.148;8.582;2023-10-19T05:51:20;98438.38;;;10.85;100.00
24558;BME280;12726;49.148;8.582;2023-10-19T05:54:05;98447.50;;;10.84;100.00
24558;BME280;12726;49.148;8.582;2023-10-19T05:56:52;98446.13;;;10.81;100.00
24558;BME280;12726;49.148;8.582;2023-10-19T05:59:37;98451.53;;;10.81;100.00
24558;BME280;12726;49.148;8.582;2023-10-19T06:02:22;98451.00;;;10.84;100.00
24558;BME280;12726;49.148;8.582;2023-10-19T06:05:08;98451.03;;;10.89;100.00
24558;BME280;12726;49.148;8.582;2023-10-19T06:07:54;98468.00;;;10.90;100.00
24558;BME280;12726;49.148;8.582;2023-10-19T06:10:40;98463.41;;;10.90;100.00
24558;BME280;12726;49.148;8.582;2023-10-19T06:13:26;98462.34;;;10.91;100.00
24558;BME280;12726;49.148;8.582;2023-10-19T06:16:11;98460.47;;;10.92;100.00
24558;BME280;12726;49.148;8.582;2023-10-19T06:18:58;98468.81;;;10.95;100.00
24558;BME280;12726;49.148;8.582;2023-10-19T06:21:43;98463.19;;;10.97;100.00
24558;BME280;12726;49.148;8.582;2023-10-19T06:24:30;98466.44;;;10.99;100.00
24558;BME280;12726;49.148;8.582;2023-10-19T06:27:15;98466.44;;;10.99;100.00
24558;BME280;12726;49.148;8.582;2023-10-19T06:30:00;98457.56;;;11.04;100.00
24558;BME280;12726;49.148;8.582;2023-10-19T06:32:47;98460.00;;;11.05;100.00
24558;BME280;12726;49.148;8.582;2023-10-19T06:35:33;98444.66;;;11.06;100.00
24558;BME280;12726;49.148;8.582;2023-10-19T06:38:21;98460.56;;;11.07;100.00
24558;BME280;12726;49.148;8.582;2023-10-19T06:41:14;98451.41;;;11.08;100.00
24558;BME280;12726;49.148;8.582;2023-10-19T06:44:00;98451.41;;;11.08;100.00
24558;BME280;12726;49.148;8.582;2023-10-19T06:46:46;98457.03;;;11.07;100.00
24558;BME280;12726;49.148;8.582;2023-10-19T06:49:31;98451.13;;;11.10;100.00
24558;BME280;12726;49.148;8.582;2023-10-19T06:52:17;98447.91;;;11.13;100.00
24558;BME280;12726;49.148;8.582;2023-10-19T06:55:03;98438.78;;;11.19;100.00
24558;BME280;12726;49.148;8.582;2023-10-19T06:57:51;98450.91;;;11.21;100.00
24558;BME280;12726;49.148;8.582;2023-10-19T07:00:36;98445.53;;;11.26;100.00
24558;BME280;12726;49.148;8.582;2023-10-19T07:03:26;98450.13;;;11.31;100.00
24558;BME280;12726;49.148;8.582;2023-10-19T07:06:13;98431.28;;;11.36;100.00
24558;BME280;12726;49.148;8.582;2023-10-19T07:08:58;98431.84;;;11.43;100.00
24558;BME280;12726;49.148;8.582;2023-10-19T07:11:43;98429.97;;;11.49;100.00
24558;BME280;12726;49.148;8.582;2023-10-19T07:14:32;98430.78;;;11.54;100.00
24558;BME280;12726;49.148;8.582;2023-10-19T07:17:17;98434.59;;;11.63;100.00
24558;BME280;12726;49.148;8.582;2023-10-19T07:20:04;98441.59;;;11.69;100.00
24558;BME280;12726;49.148;8.582;2023-10-19T07:22:49;98441.09;;;11.77;100.00
24558;BME280;12726;49.148;8.582;2023-10-19T07:25:36;98439.75;;;11.80;100.00
24558;BME280;12726;49.148;8.582;2023-10-19T07:28:27;98439.22;;;11.83;100.00
24558;BME280;12726;49.148;8.582;2023-10-19T07:31:14;98436.78;;;11.87;100.00
24558;BME280;12726;49.148;8.582;2023-10-19T07:34:00;98436.50;;;11.88;100.00
24558;BME280;12726;49.148;8.582;2023-10-19T07:36:47;98438.69;;;11.91;100.00
24558;BME280;12726;49.148;8.582;2023-10-19T07:39:32;98439.50;;;11.92;100.00
24558;BME280;12726;49.148;8.582;2023-10-19T07:42:18;98450.53;;;11.95;100.00
24558;BME280;12726;49.148;8.582;2023-10-19T07:45:06;98448.38;;;11.97;100.00
24558;BME280;12726;49.148;8.582;2023-10-19T07:47:57;98450.28;;;12.07;100.00
24558;BME280;12726;49.148;8.582;2023-10-19T07:50:49;98436.78;;;12.17;100.00
24558;BME280;12726;49.148;8.582;2023-10-19T07:53:37;98443.25;;;12.26;100.00
24558;BME280;12726;49.148;8.582;2023-10-19T07:56:22;98443.78;;;12.38;100.00
24558;BME280;12726;49.148;8.582;2023-10-19T07:59:07;98435.41;;;12.50;100.00
24558;BME280;12726;49.148;8.582;2023-10-19T08:01:53;98439.16;;;12.64;100.00
24558;BME280;12726;49.148;8.582;2023-10-19T08:04:40;98439.41;;;12.73;100.00
24558;BME280;12726;49.148;8.582;2023-10-19T08:07:25;98435.56;;;12.89;100.00
24558;BME280;12726;49.148;8.582;2023-10-19T08:10:12;98425.69;;;13.33;100.00
24558;BME280;12726;49.148;8.582;2023-10-19T08:12:59;98416.84;;;13.67;100.00
24558;BME280;12726;49.148;8.582;2023-10-19T08:15:44;98416.28;;;14.04;100.00
24558;BME280;12726;49.148;8.582;2023-10-19T08:18:30;98421.16;;;14.41;100.00
24558;BME280;12726;49.148;8.582;2023-10-19T08:21:16;98420.81;;;14.47;100.00
24558;BME280;12726;49.148;8.582;2023-10-19T08:24:02;98433.44;;;14.81;100.00
24558;BME280;12726;49.148;8.582;2023-10-19T08:26:48;98429.31;;;15.50;100.00
24558;BME280;12726;49.148;8.582;2023-10-19T08:29:34;98427.06;;;16.59;100.00
24558;BME280;12726;49.148;8.582;2023-10-19T08:32:19;98414.44;;;17.09;100.00
24558;BME280;12726;49.148;8.582;2023-10-19T08:35:06;98405.97;;;17.25;100.00
24558;BME280;12726;49.148;8.582;2023-10-19T08:37:52;98409.41;;;17.16;97.08
24558;BME280;12726;49.148;8.582;2023-10-19T08:40:38;98411.53;;;17.55;95.71
24558;BME280;12726;49.148;8.582;2023-10-19T08:43:24;98411.34;;;17.52;94.53
24558;BME280;12726;49.148;8.582;2023-10-19T08:46:10;98398.88;;;17.37;93.92
24558;BME280;12726;49.148;8.582;2023-10-19T08:48:56;98402.81;;;17.31;94.41
24558;BME280;12726;49.148;8.582;2023-10-19T08:51:44;98405.66;;;17.26;95.24
24558;BME280;12726;49.148;8.582;2023-10-19T08:54:31;98396.63;;;17.03;93.84
24558;BME280;12726;49.148;8.582;2023-10-19T08:57:17;98406.78;;;16.84;95.94
24558;BME280;12726;49.148;8.582;2023-10-19T09:00:04;98391.59;;;16.83;97.55
24558;BME280;12726;49.148;8.582;2023-10-19T09:02:51;98396.72;;;16.84;97.96
24558;BME280;12726;49.148;8.582;2023-10-19T09:05:38;98376.38;;;16.96;96.17
24558;BME280;12726;49.148;8.582;2023-10-19T09:08:24;98388.22;;;17.13;96.32
24558;BME280;12726;49.148;8.582;2023-10-19T09:11:11;98380.13;;;17.36;95.57
24558;BME280;12726;49.148;8.582;2023-10-19T09:13:56;98375.78;;;17.48;93.07
24558;BME280;12726;49.148;8.582;2023-10-19T09:16:53;98372.16;;;17.53;93.28
24558;BME280;12726;49.148;8.582;2023-10-19T09:19:41;98368.41;;;17.49;92.51
24558;BME280;12726;49.148;8.582;2023-10-19T09:22:35;98370.00;;;17.64;92.79
24558;BME280;12726;49.148;8.582;2023-10-19T09:25:20;98374.50;;;17.82;90.00
24558;BME280;12726;49.148;8.582;2023-10-19T09:28:07;98369.78;;;17.96;88.14
24558;BME280;12726;49.148;8.582;2023-10-19T09:30:55;98375.94;;;18.32;89.10
24558;BME280;12726;49.148;8.582;2023-10-19T09:33:41;98363.63;;;18.66;87.86
24558;BME280;12726;49.148;8.582;2023-10-19T09:36:27;98356.03;;;18.54;87.65
24558;BME280;12726;49.148;8.582;2023-10-19T09:39:14;98365.16;;;18.27;88.02
24558;BME280;12726;49.148;8.582;2023-10-19T09:42:01;98364.00;;;18.20;88.51
24558;BME280;12726;49.148;8.582;2023-10-19T09:44:55;98359.34;;;18.82;89.38
24558;BME280;12726;49.148;8.582;2023-10-19T09:47:49;98355.66;;;19.86;86.83
24558;BME280;12726;49.148;8.582;2023-10-19T09:50:35;98358.34;;;20.67;81.49
24558;BME280;12726;49.148;8.582;2023-10-19T09:53:22;98360.16;;;21.52;76.84
24558;BME280;12726;49.148;8.582;2023-10-19T09:56:12;98353.56;;;21.85;73.99
24558;BME280;12726;49.148;8.582;2023-10-19T09:59:02;98352.72;;;21.52;73.63
24558;BME280;12726;49.148;8.582;2023-10-19T10:02:07;98343.72;;;21.31;73.81
24558;BME280;12726;49.148;8.582;2023-10-19T10:04:54;98346.72;;;21.17;74.79
24558;BME280;12726;49.148;8.582;2023-10-19T10:07:41;98342.06;;;21.09;76.03
24558;BME280;12726;49.148;8.582;2023-10-19T10:10:26;98331.88;;;20.89;76.90
24558;BME280;12726;49.148;8.582;2023-10-19T10:13:36;98339.19;;;20.67;78.01
24558;BME280;12726;49.148;8.582;2023-10-19T10:16:23;98336.09;;;20.40;77.72
24558;BME280;12726;49.148;8.582;2023-10-19T10:19:20;98340.38;;;19.94;80.49
24558;BME280;12726;49.148;8.582;2023-10-19T10:22:08;98346.16;;;19.84;81.40
24558;BME280;12726;49.148;8.582;2023-10-19T10:24:59;98346.19;;;19.67;82.83
24558;BME280;12726;49.148;8.582;2023-10-19T10:27:51;98343.09;;;19.25;84.17
24558;BME280;12726;49.148;8.582;2023-10-19T10:30:37;98346.34;;;18.79;87.24
24558;BME280;12726;49.148;8.582;2023-10-19T10:33:37;98345.38;;;18.44;89.91
24558;BME280;12726;49.148;8.582;2023-10-19T10:36:24;98348.16;;;18.22;92.05
24558;BME280;12726;49.148;8.582;2023-10-19T10:39:10;98340.00;;;17.99;93.28
24558;BME280;12726;49.148;8.582;2023-10-19T10:42:02;98334.09;;;17.75;95.01
24558;BME280;12726;49.148;8.582;2023-10-19T10:44:48;98327.81;;;17.52;97.40
24558;BME280;12726;49.148;8.582;2023-10-19T10:47:36;98330.63;;;17.25;99.80
24558;BME280;12726;49.148;8.582;2023-10-19T10:50:21;98339.53;;;17.03;100.00
24558;BME280;12726;49.148;8.582;2023-10-19T10:53:10;98338.53;;;16.86;100.00
24558;BME280;12726;49.148;8.582;2023-10-19T10:56:00;98332.59;;;16.70;100.00
24558;BME280;12726;49.148;8.582;2023-10-19T10:58:45;98333.19;;;16.53;100.00
24558;BME280;12726;49.148;8.582;2023-10-19T11:01:31;98339.44;;;16.40;100.00
24558;BME280;12726;49.148;8.582;2023-10-19T11:04:18;98340.41;;;16.30;100.00
24558;BME280;12726;49.148;8.582;2023-10-19T11:07:03;98341.09;;;16.22;100.00
24558;BME280;12726;49.148;8.582;2023-10-19T11:09:50;98337.16;;;16.15;100.00
24558;BME280;12726;49.148;8.582;2023-10-19T11:12:35;98346.22;;;16.10;100.00
24558;BME280;12726;49.148;8.582;2023-10-19T11:15:21;98340.06;;;16.04;100.00
24558;BME280;12726;49.148;8.582;2023-10-19T11:18:07;98330.91;;;16.00;100.00
24558;BME280;12726;49.148;8.582;2023-10-19T11:20:54;98332.91;;;15.95;100.00
24558;BME280;12726;49.148;8.582;2023-10-19T11:23:41;98331.56;;;15.92;100.00
24558;BME280;12726;49.148;8.582;2023-10-19T11:26:28;98326.25;;;15.87;100.00
24558;BME280;12726;49.148;8.582;2023-10-19T11:29:16;98314.38;;;15.83;100.00
24558;BME280;12726;49.148;8.582;2023-10-19T11:32:01;98300.59;;;15.80;100.00
24558;BME280;12726;49.148;8.582;2023-10-19T11:34:46;98303.91;;;15.77;100.00
24558;BME280;12726;49.148;8.582;2023-10-19T11:37:45;98283.59;;;15.74;100.00
24558;BME280;12726;49.148;8.582;2023-10-19T11:40:31;98280.66;;;15.71;100.00
24558;BME280;12726;49.148;8.582;2023-10-19T11:43:18;98276.38;;;15.70;100.00
24558;BME280;12726;49.148;8.582;2023-10-19T11:46:03;98261.47;;;15.67;100.00
24558;BME280;12726;49.148;8.582;2023-10-19T11:48:49;98254.25;;;15.62;100.00
24558;BME280;12726;49.148;8.582;2023-10-19T11:51:34;98254.25;;;15.62;100.00
24558;BME280;12726;49.148;8.582;2023-10-19T11:54:21;98244.50;;;15.61;100.00
24558;BME280;12726;49.148;8.582;2023-10-19T11:57:06;98240.97;;;15.61;100.00
24558;BME280;12726;49.148;8.582;2023-10-19T11:59:53;98234.53;;;15.57;100.00
24558;BME280;12726;49.148;8.582;2023-10-19T12:02:38;98236.75;;;15.55;100.00
24558;BME280;12726;49.148;8.582;2023-10-19T12:05:25;98237.56;;;15.55;100.00
24558;BME280;12726;49.148;8.582;2023-10-19T12:08:10;98241.56;;;15.58;100.00
24558;BME280;12726;49.148;8.582;2023-10-19T12:10:56;98232.53;;;15.62;100.00
24558;BME280;12726;49.148;8.582;2023-10-19T12:13:41;98246.81;;;15.68;100.00
24558;BME280;12726;49.148;8.582;2023-10-19T12:16:28;98244.53;;;15.75;100.00
24558;BME280;12726;49.148;8.582;2023-10-19T12:19:14;98248.16;;;15.84;100.00
24558;BME280;12726;49.148;8.582;2023-10-19T12:22:01;98258.63;;;15.91;100.00
24558;BME280;12726;49.148;8.582;2023-10-19T12:24:46;98265.06;;;15.95;100.00
24558;BME280;12726;49.148;8.582;2023-10-19T12:27:32;98269.09;;;15.97;100.00
24558;BME280;12726;49.148;8.582;2023-10-19T12:30:17;98278.03;;;15.98;100.00
24558;BME280;12726;49.148;8.582;2023-10-19T12:33:07;98275.50;;;16.01;100.00
24558;BME280;12726;49.148;8.582;2023-10-19T12:35:55;98272.22;;;16.04;100.00
24558;BME280;12726;49.148;8.582;2023-10-19T12:38:41;98263.16;;;16.09;100.00
24558;BME280;12726;49.148;8.582;2023-10-19T12:41:27;98262.25;;;16.14;100.00
24558;BME280;12726;49.148;8.582;2023-10-19T12:44:13;98268.09;;;16.21;100.00
24558;BME280;12726;49.148;8.582;2023-10-19T12:46:59;98259.16;;;16.34;100.00
24558;BME280;12726;49.148;8.582;2023-10-19T12:49:46;98261.53;;;16.49;100.00
24558;BME280;12726;49.148;8.582;2023-10-19T12:52:31;98268.41;;;16.60;100.00
24558;BME280;12726;49.148;8.582;2023-10-19T12:55:21;98249.66;;;16.59;100.00
24558;BME280;12726;49.148;8.582;2023-10-19T12:58:11;98256.03;;;16.54;100.00
24558;BME280;12726;49.148;8.582;2023-10-19T13:00:59;98263.56;;;16.43;100.00
24558;BME280;12726;49.148;8.582;2023-10-19T13:03:45;98266.19;;;16.35;100.00
24558;BME280;12726;49.148;8.582;2023-10-19T13:06:32;98260.34;;;16.28;100.00
24558;BME280;12726;49.148;8.582;2023-10-19T13:09:17;98259.34;;;16.24;100.00
24558;BME280;12726;49.148;8.582;2023-10-19T13:12:06;98238.94;;;16.13;100.00
24558;BME280;12726;49.148;8.582;2023-10-19T13:14:51;98243.97;;;16.05;100.00
24558;BME280;12726;49.148;8.582;2023-10-19T13:17:37;98248.66;;;16.00;100.00
24558;BME280;12726;49.148;8.582;2023-10-19T13:20:22;98243.03;;;15.96;100.00
24558;BME280;12726;49.148;8.582;2023-10-19T13:23:09;98240.34;;;15.96;100.00
24558;BME280;12726;49.148;8.582;2023-10-19T13:25:56;98240.34;;;15.96;100.00
24558;BME280;12726;49.148;8.582;2023-10-19T13:28:51;98227.88;;;15.95;100.00
24558;BME280;12726;49.148;8.582;2023-10-19T13:31:39;98225.97;;;15.96;100.00
24558;BME280;12726;49.148;8.582;2023-10-19T13:34:24;98221.03;;;15.98;100.00
24558;BME280;12726;49.148;8.582;2023-10-19T13:37:10;98219.91;;;15.99;100.00
24558;BME280;12726;49.148;8.582;2023-10-19T13:39:57;98226.16;;;15.99;100.00
24558;BME280;12726;49.148;8.582;2023-10-19T13:42:43;98221.34;;;15.96;100.00
24558;BME280;12726;49.148;8.582;2023-10-19T13:45:32;98228.16;;;15.94;100.00
24558;BME280;12726;49.148;8.582;2023-10-19T13:48:17;98226.06;;;15.91;100.00
24558;BME280;12726;49.148;8.582;2023-10-19T13:51:03;98214.69;;;15.89;100.00
24558;BME280;12726;49.148;8.582;2023-10-19T13:53:56;98210.66;;;15.86;100.00
24558;BME280;12726;49.148;8.582;2023-10-19T13:56:43;98202.03;;;15.84;100.00
24558;BME280;12726;49.148;8.582;2023-10-19T13:59:28;98187.44;;;15.80;100.00
24558;BME280;12726;49.148;8.582;2023-10-19T14:02:14;98181.50;;;15.78;100.00
24558;BME280;12726;49.148;8.582;2023-10-19T14:04:59;98177.00;;;15.74;100.00
24558;BME280;12726;49.148;8.582;2023-10-19T14:07:45;98158.59;;;15.71;100.00
24558;BME280;12726;49.148;8.582;2023-10-19T14:10:31;98137.50;;;15.68;100.00
24558;BME280;12726;49.148;8.582;2023-10-19T14:13:18;98136.69;;;15.67;100.00
24558;BME280;12726;49.148;8.582;2023-10-19T14:16:07;98120.44;;;15.67;100.00
24558;BME280;12726;49.148;8.582;2023-10-19T14:18:52;98122.34;;;15.66;100.00
24558;BME280;12726;49.148;8.582;2023-10-19T14:21:37;98112.28;;;15.67;100.00
24558;BME280;12726;49.148;8.582;2023-10-19T14:24:24;98140.50;;;15.66;100.00
24558;BME280;12726;49.148;8.582;2023-10-19T14:27:10;98153.78;;;15.68;100.00
24558;BME280;12726;49.148;8.582;2023-10-19T14:29:56;98151.88;;;15.68;100.00
24558;BME280;12726;49.148;8.582;2023-10-19T14:32:44;98143.44;;;15.70;100.00
24558;BME280;12726;49.148;8.582;2023-10-19T14:35:31;98138.50;;;15.72;100.00
24558;BME280;12726;49.148;8.582;2023-10-19T14:38:19;98127.34;;;15.73;100.00